Time;durP1;ratioP1;P1;durP2;ratioP2;P2;SDS_P1;SDS_P2;PMS_P1;PMS_P2;Temp;Humidity;BMP_temperature;BMP_pressure;BME280_temperature;BME280_humidity;BME280_pressure;Samples;Min_cycle;Max_cycle;Signal;HPM_P1;HPM_P2
2023/05/21 00:01:24;;;;;;;25.13;9.87;;;;;;;;;;5029365;28;20276;-70
2023/05/21 00:03:49;;;;;;;20.50;9.93;;;;;;;;;;5029675;28;20567;-70
2023/05/21 00:06:14;;;;;;;20.13;10.53;;;;;;;;;;5027817;28;20183;-70
2023/05/21 00:08:40;;;;;;;22.53;10.20;;;;;;;;;;5028625;28;20275;-70
2023/05/21 00:11:05;;;;;;;18.50;10.13;;;;;;;;;;5032705;28;20287;-70
2023/05/21 00:13:31;;;;;;;20.08;10.52;;;;;;;;;;5029101;28;20029;-70
2023/05/21 00:15:56;;;;;;;19.90;10.65;;;;;;;;;;5030196;28;20551;-70
2023/05/21 00:18:21;;;;;;;20.17;10.10;;;;;;;;;;5029416;28;20079;-70
2023/05/21 00:20:46;;;;;;;22.83;10.23;;;;;;;;;;5031446;28;20272;-70
2023/05/21 00:23:11;;;;;;;21.87;9.40;;;;;;;;;;5028393;28;20843;-70
2023/05/21 00:25:37;;;;;;;23.45;9.75;;;;;;;;;;5027195;28;20279;-70
2023/05/21 00:28:02;;;;;;;21.88;11.00;;;;;;;;;;5029077;28;20383;-70
2023/05/21 00:30:27;;;;;;;22.90;10.82;;;;;;;;;;5031850;28;20024;-70
2023/05/21 00:32:52;;;;;;;21.70;10.87;;;;;;;;;;5029496;28;20550;-70
2023/05/21 00:35:18;;;;;;;25.30;10.10;;;;;;;;;;5027405;28;20455;-70
2023/05/21 00:37:43;;;;;;;22.15;11.10;;;;;;;;;;5029017;28;20029;-70
2023/05/21 00:40:10;;;;;;;23.57;10.50;;;;;;;;;;5028142;28;20018;-70
2023/05/21 00:42:38;;;;;;;20.02;10.10;;;;;;;;;;5028862;28;20296;-70
2023/05/21 00:45:07;;;;;;;21.20;10.57;;;;;;;;;;5029454;28;20041;-70
2023/05/21 00:47:32;;;;;;;20.58;10.60;;;;;;;;;;5028876;28;20029;-70
2023/05/21 00:49:57;;;;;;;20.50;10.55;;;;;;;;;;5024363;28;20014;-70
2023/05/21 00:52:25;;;;;;;26.15;11.40;;;;;;;;;;5034027;28;20172;-70
2023/05/21 00:54:51;;;;;;;20.73;10.50;;;;;;;;;;5033766;28;20029;-70
2023/05/21 00:57:19;;;;;;;20.73;10.57;;;;;;;;;;5030390;28;20060;-70
2023/05/21 00:59:45;;;;;;;25.13;10.80;;;;;;;;;;5031979;28;20053;-70
2023/05/21 01:02:13;;;;;;;21.50;11.68;;;;;;;;;;5030869;28;20052;-70
2023/05/21 01:04:38;;;;;;;18.10;10.48;;;;;;;;;;5032012;28;20106;-70
2023/05/21 01:07:05;;;;;;;19.95;10.40;;;;;;;;;;5029637;28;20487;-70
2023/05/21 01:09:30;;;;;;;21.25;10.88;;;;;;;;;;5032185;28;20044;-70
2023/05/21 01:11:55;;;;;;;21.73;11.20;;;;;;;;;;5030931;28;20099;-70
2023/05/21 01:14:21;;;;;;;19.35;10.00;;;;;;;;;;5033321;28;20345;-70
2023/05/21 01:16:50;;;;;;;23.35;10.95;;;;;;;;;;5030569;28;20071;-70
2023/05/21 01:19:17;;;;;;;24.15;11.60;;;;;;;;;;5030977;28;20029;-70
2023/05/21 01:21:48;;;;;;;18.42;10.15;;;;;;;;;;5029728;28;20107;-70
2023/05/21 01:24:14;;;;;;;23.95;11.10;;;;;;;;;;5030284;28;21117;-70
2023/05/21 01:26:41;;;;;;;19.77;10.40;;;;;;;;;;5031183;28;20033;-70
2023/05/21 01:29:11;;;;;;;21.05;10.57;;;;;;;;;;5031245;28;20020;-70
2023/05/21 01:31:55;;;;;;;21.25;10.35;;;;;;;;;;5031336;28;20418;-70
2023/05/21 01:34:22;;;;;;;21.95;11.02;;;;;;;;;;5027266;28;20059;-70
2023/05/21 01:36:52;;;;;;;19.38;10.60;;;;;;;;;;5029402;28;20022;-70
2023/05/21 01:39:21;;;;;;;25.83;11.07;;;;;;;;;;5028912;28;20017;-70
2023/05/21 01:41:49;;;;;;;22.30;10.00;;;;;;;;;;5030258;28;20029;-70
2023/05/21 01:44:17;;;;;;;19.85;11.02;;;;;;;;;;5029865;28;20029;-70
2023/05/21 01:46:42;;;;;;;20.55;10.60;;;;;;;;;;5030473;28;20021;-70
2023/05/21 01:49:07;;;;;;;21.47;10.37;;;;;;;;;;5029618;28;20075;-70
2023/05/21 01:51:32;;;;;;;21.90;10.43;;;;;;;;;;5026075;28;20280;-70
2023/05/21 01:53:58;;;;;;;23.65;10.25;;;;;;;;;;5035168;28;20032;-70
2023/05/21 01:56:24;;;;;;;23.13;10.20;;;;;;;;;;5030027;28;20084;-70
2023/05/21 01:58:49;;;;;;;23.40;10.07;;;;;;;;;;5032646;28;20753;-70
2023/05/21 02:01:15;;;;;;;18.40;10.32;;;;;;;;;;5029475;28;20053;-70
2023/05/21 02:03:40;;;;;;;19.53;9.80;;;;;;;;;;5032202;28;20029;-70
2023/05/21 02:06:05;;;;;;;19.27;9.48;;;;;;;;;;5031084;28;20792;-70
2023/05/21 02:08:30;;;;;;;20.67;9.23;;;;;;;;;;5030146;28;20032;-70
2023/05/21 02:10:55;;;;;;;21.08;9.93;;;;;;;;;;5034018;28;20268;-70
2023/05/21 02:13:21;;;;;;;19.43;9.80;;;;;;;;;;5034100;28;20388;-70
2023/05/21 02:15:47;;;;;;;21.05;9.73;;;;;;;;;;5034092;28;20359;-70
2023/05/21 02:18:15;;;;;;;24.15;10.25;;;;;;;;;;5036341;28;20043;-70
2023/05/21 02:20:40;;;;;;;15.20;9.00;;;;;;;;;;5036069;28;20022;-70
2023/05/21 02:23:05;;;;;;;15.57;8.52;;;;;;;;;;5029873;28;20031;-70
2023/05/21 02:25:31;;;;;;;20.20;10.10;;;;;;;;;;5033173;28;20395;-70
2023/05/21 02:27:56;;;;;;;19.63;10.40;;;;;;;;;;5035360;28;20299;-70
2023/05/21 02:30:21;;;;;;;19.43;9.67;;;;;;;;;;5036685;28;20275;-70
2023/05/21 02:32:47;;;;;;;16.77;8.95;;;;;;;;;;5034090;28;20637;-70
2023/05/21 02:35:12;;;;;;;16.45;9.13;;;;;;;;;;5032464;28;20128;-70
2023/05/21 02:37:42;;;;;;;19.60;9.40;;;;;;;;;;5033830;28;20029;-70
2023/05/21 02:40:08;;;;;;;17.10;9.63;;;;;;;;;;5034389;28;20024;-70
2023/05/21 02:42:35;;;;;;;20.63;10.35;;;;;;;;;;5031717;28;20036;-70
2023/05/21 02:45:00;;;;;;;18.27;10.10;;;;;;;;;;5035786;28;20121;-70
2023/05/21 02:47:25;;;;;;;20.55;10.27;;;;;;;;;;5030705;28;20544;-70
2023/05/21 02:49:51;;;;;;;22.75;11.23;;;;;;;;;;5035355;28;20505;-70
2023/05/21 02:52:17;;;;;;;23.00;10.23;;;;;;;;;;5031787;28;20390;-70
2023/05/21 02:54:42;;;;;;;21.80;10.40;;;;;;;;;;5033132;28;20017;-70
2023/05/21 02:57:07;;;;;;;19.75;10.77;;;;;;;;;;5032654;28;20153;-70
2023/05/21 02:59:33;;;;;;;20.30;10.37;;;;;;;;;;5032929;28;20216;-70
2023/05/21 03:01:58;;;;;;;20.48;10.02;;;;;;;;;;5032785;28;20359;-70
2023/05/21 03:04:23;;;;;;;17.20;9.73;;;;;;;;;;5031959;28;20146;-70
2023/05/21 03:06:53;;;;;;;22.70;10.05;;;;;;;;;;5032736;28;20769;-71
2023/05/21 03:09:20;;;;;;;20.85;10.07;;;;;;;;;;5033690;28;20086;-70
2023/05/21 03:11:45;;;;;;;18.17;10.20;;;;;;;;;;5032651;28;20028;-70
2023/05/21 03:14:10;;;;;;;17.50;9.40;;;;;;;;;;5032885;28;20451;-70
2023/05/21 03:16:36;;;;;;;19.03;10.07;;;;;;;;;;5034385;28;20385;-70
2023/05/21 03:19:02;;;;;;;22.95;10.23;;;;;;;;;;5033832;28;20283;-70
2023/05/21 03:21:28;;;;;;;23.67;9.68;;;;;;;;;;5032779;28;20095;-70
2023/05/21 03:23:57;;;;;;;19.38;10.27;;;;;;;;;;5034872;28;20577;-70
2023/05/21 03:26:22;;;;;;;15.93;9.55;;;;;;;;;;5029215;28;20048;-70
2023/05/21 03:28:48;;;;;;;17.13;9.77;;;;;;;;;;5033723;28;20108;-70
2023/05/21 03:31:13;;;;;;;16.80;9.57;;;;;;;;;;5034445;28;20043;-70
2023/05/21 03:33:38;;;;;;;19.23;10.27;;;;;;;;;;5031473;28;20756;-70
2023/05/21 03:36:03;;;;;;;16.00;9.03;;;;;;;;;;5031601;28;20269;-70
2023/05/21 03:38:28;;;;;;;16.15;9.70;;;;;;;;;;5034443;28;20467;-70
2023/05/21 03:40:53;;;;;;;17.38;9.02;;;;;;;;;;5034019;28;20045;-70
2023/05/21 03:43:19;;;;;;;16.23;8.87;;;;;;;;;;5034526;28;20395;-70
2023/05/21 03:45:44;;;;;;;18.10;9.83;;;;;;;;;;5034583;28;20260;-70
2023/05/21 03:48:09;;;;;;;17.97;9.20;;;;;;;;;;5030729;28;20295;-70
2023/05/21 03:50:35;;;;;;;21.30;10.13;;;;;;;;;;5031110;28;20276;-70
2023/05/21 03:53:00;;;;;;;19.02;9.93;;;;;;;;;;5036766;28;20179;-70
2023/05/21 03:55:26;;;;;;;16.27;8.95;;;;;;;;;;5034802;28;20013;-70
2023/05/21 03:57:51;;;;;;;21.60;9.63;;;;;;;;;;5033837;28;20471;-70
2023/05/21 04:00:16;;;;;;;17.03;9.13;;;;;;;;;;5033796;28;20033;-70
2023/05/21 04:02:41;;;;;;;26.35;9.45;;;;;;;;;;5032542;28;20326;-70
2023/05/21 04:05:07;;;;;;;18.50;9.60;;;;;;;;;;5030904;28;20036;-70
2023/05/21 04:07:32;;;;;;;15.48;9.10;;;;;;;;;;5031271;28;20275;-70
2023/05/21 04:09:57;;;;;;;17.48;9.45;;;;;;;;;;5034035;28;20462;-70
2023/05/21 04:12:22;;;;;;;16.35;9.40;;;;;;;;;;5033750;28;20029;-70
2023/05/21 04:14:48;;;;;;;18.55;9.60;;;;;;;;;;5033058;28;20023;-70
2023/05/21 04:17:13;;;;;;;17.63;9.23;;;;;;;;;;5031714;28;20101;-70
2023/05/21 04:19:38;;;;;;;16.67;9.25;;;;;;;;;;5032386;28;20105;-70
2023/05/21 04:22:04;;;;;;;21.13;8.73;;;;;;;;;;5035658;28;20110;-70
2023/05/21 04:24:29;;;;;;;20.13;9.73;;;;;;;;;;5031520;28;20321;-70
2023/05/21 04:26:56;;;;;;;18.45;9.30;;;;;;;;;;5034633;28;20464;-70
2023/05/21 04:29:21;;;;;;;21.90;9.85;;;;;;;;;;5027578;28;20017;-70
2023/05/21 04:31:47;;;;;;;19.02;9.30;;;;;;;;;;5030548;28;20063;-70
2023/05/21 04:34:12;;;;;;;26.55;9.50;;;;;;;;;;5029881;28;20074;-70
2023/05/21 04:36:38;;;;;;;22.33;10.27;;;;;;;;;;5031119;28;20262;-70
2023/05/21 04:39:05;;;;;;;20.83;10.43;;;;;;;;;;5030557;28;20025;-70
2023/05/21 04:41:30;;;;;;;21.05;9.00;;;;;;;;;;5032491;28;20056;-70
2023/05/21 04:43:55;;;;;;;18.13;8.98;;;;;;;;;;5032032;28;20072;-70
2023/05/21 04:46:24;;;;;;;18.48;9.60;;;;;;;;;;5029825;28;20018;-70
2023/05/21 04:48:51;;;;;;;25.60;9.93;;;;;;;;;;5026776;28;20013;-70
2023/05/21 04:51:16;;;;;;;21.02;10.57;;;;;;;;;;5031870;28;20391;-70
2023/05/21 04:53:41;;;;;;;19.47;9.80;;;;;;;;;;5032218;28;20020;-70
2023/05/21 04:56:08;;;;;;;19.67;9.90;;;;;;;;;;5030704;28;20256;-70
2023/05/21 04:58:33;;;;;;;19.50;9.70;;;;;;;;;;5031738;28;20351;-70
2023/05/21 05:01:01;;;;;;;18.43;9.20;;;;;;;;;;5028404;28;20109;-70
2023/05/21 05:03:26;;;;;;;17.20;8.85;;;;;;;;;;5030497;28;20252;-70
2023/05/21 05:05:52;;;;;;;17.83;9.07;;;;;;;;;;5026286;28;20025;-70
2023/05/21 05:08:17;;;;;;;17.35;10.23;;;;;;;;;;5030615;28;20626;-70
2023/05/21 05:10:42;;;;;;;17.53;9.27;;;;;;;;;;5029563;28;20375;-70
2023/05/21 05:13:08;;;;;;;17.80;9.20;;;;;;;;;;5031349;28;20307;-70
2023/05/21 05:15:33;;;;;;;15.43;8.80;;;;;;;;;;5029401;28;20291;-70
2023/05/21 05:17:58;;;;;;;14.40;9.10;;;;;;;;;;5030512;28;20017;-70
2023/05/21 05:20:24;;;;;;;18.43;9.77;;;;;;;;;;5032034;28;20616;-70
2023/05/21 05:22:49;;;;;;;17.80;8.05;;;;;;;;;;5034048;28;20275;-70
2023/05/21 05:25:14;;;;;;;15.75;8.70;;;;;;;;;;5031243;28;20457;-70
2023/05/21 05:27:40;;;;;;;20.03;9.13;;;;;;;;;;5030265;28;20568;-70
2023/05/21 05:30:06;;;;;;;17.67;9.07;;;;;;;;;;5031650;28;20255;-70
2023/05/21 05:32:31;;;;;;;16.25;8.98;;;;;;;;;;5030121;28;20100;-70
2023/05/21 05:34:56;;;;;;;17.73;9.03;;;;;;;;;;5033299;28;20013;-70
2023/05/21 05:37:21;;;;;;;19.27;8.80;;;;;;;;;;5032650;28;20676;-70
2023/05/21 05:39:46;;;;;;;17.57;9.57;;;;;;;;;;5030212;28;20283;-70
2023/05/21 05:42:11;;;;;;;17.13;10.00;;;;;;;;;;5030493;28;21734;-70
2023/05/21 05:44:37;;;;;;;16.57;9.90;;;;;;;;;;5032185;28;20333;-70
2023/05/21 05:47:02;;;;;;;15.60;8.77;;;;;;;;;;5031319;28;20284;-70
2023/05/21 05:49:27;;;;;;;18.58;9.35;;;;;;;;;;5030223;28;20240;-70
2023/05/21 05:51:52;;;;;;;18.97;9.13;;;;;;;;;;5026096;28;20359;-70
2023/05/21 05:54:18;;;;;;;14.60;8.57;;;;;;;;;;5028286;28;20698;-70
2023/05/21 05:56:43;;;;;;;23.30;10.55;;;;;;;;;;5027965;28;20325;-70
2023/05/21 05:59:08;;;;;;;21.50;10.23;;;;;;;;;;5022184;28;20030;-70
2023/05/21 06:01:33;;;;;;;15.40;9.30;;;;;;;;;;5027363;28;20634;-70
2023/05/21 06:03:59;;;;;;;18.58;10.02;;;;;;;;;;5026769;28;20283;-70
2023/05/21 06:06:24;;;;;;;16.20;9.07;;;;;;;;;;5028148;28;20518;-70
2023/05/21 06:08:49;;;;;;;17.27;9.23;;;;;;;;;;5031389;28;20035;-70
2023/05/21 06:11:17;;;;;;;21.43;9.27;;;;;;;;;;5028280;28;20785;-70
2023/05/21 06:13:43;;;;;;;15.10;9.02;;;;;;;;;;5027161;28;20275;-70
2023/05/21 06:16:08;;;;;;;18.83;9.93;;;;;;;;;;5025391;28;20391;-69
2023/05/21 06:18:34;;;;;;;24.45;9.93;;;;;;;;;;5025349;28;20028;-70
2023/05/21 06:20:59;;;;;;;16.48;9.85;;;;;;;;;;5028018;28;20029;-70
2023/05/21 06:23:24;;;;;;;15.27;8.40;;;;;;;;;;5030987;28;20386;-70
2023/05/21 06:25:49;;;;;;;18.20;9.40;;;;;;;;;;5028946;28;20323;-70
2023/05/21 06:28:16;;;;;;;18.23;9.02;;;;;;;;;;5027974;28;20032;-70
2023/05/21 06:30:41;;;;;;;16.08;9.40;;;;;;;;;;5026484;28;20311;-70
2023/05/21 06:33:07;;;;;;;15.03;8.63;;;;;;;;;;5027122;28;20041;-70
2023/05/21 06:35:35;;;;;;;16.70;8.23;;;;;;;;;;5027273;28;20508;-70
2023/05/21 06:38:00;;;;;;;15.43;9.05;;;;;;;;;;5029109;28;20398;-70
2023/05/21 06:40:25;;;;;;;20.37;9.87;;;;;;;;;;5027805;28;20184;-70
2023/05/21 06:42:51;;;;;;;18.57;9.83;;;;;;;;;;5028974;28;20831;-70
2023/05/21 06:45:16;;;;;;;13.13;7.97;;;;;;;;;;5027221;28;20021;-70
2023/05/21 06:47:41;;;;;;;14.97;8.33;;;;;;;;;;5028121;28;20284;-70
2023/05/21 06:50:06;;;;;;;16.08;9.32;;;;;;;;;;5025811;28;20303;-70
2023/05/21 06:52:32;;;;;;;15.95;9.82;;;;;;;;;;5030774;28;20116;-70
2023/05/21 06:54:57;;;;;;;15.18;9.10;;;;;;;;;;5020752;28;20208;-70
2023/05/21 06:57:22;;;;;;;18.52;9.00;;;;;;;;;;5024626;28;20080;-70
2023/05/21 06:59:47;;;;;;;16.20;8.63;;;;;;;;;;5023448;28;20018;-69
2023/05/21 07:02:12;;;;;;;14.25;9.45;;;;;;;;;;5027717;28;20100;-69
2023/05/21 07:04:38;;;;;;;16.03;9.30;;;;;;;;;;5034974;28;20534;-70
2023/05/21 07:07:03;;;;;;;17.33;9.13;;;;;;;;;;5030119;28;20280;-70
2023/05/21 07:09:28;;;;;;;14.38;8.57;;;;;;;;;;5029301;28;20021;-70
2023/05/21 07:11:53;;;;;;;14.95;8.80;;;;;;;;;;5028707;28;20019;-69
2023/05/21 07:14:19;;;;;;;19.23;9.47;;;;;;;;;;5027780;28;20079;-70
2023/05/21 07:16:44;;;;;;;15.25;8.57;;;;;;;;;;5030171;28;20284;-70
2023/05/21 07:19:09;;;;;;;23.13;9.97;;;;;;;;;;5031027;28;20052;-70
2023/05/21 07:21:34;;;;;;;18.17;8.63;;;;;;;;;;5030425;28;20387;-70
2023/05/21 07:24:00;;;;;;;14.98;8.27;;;;;;;;;;5024210;28;20780;-69
2023/05/21 07:26:25;;;;;;;16.07;8.17;;;;;;;;;;5029707;28;20071;-70
2023/05/21 07:28:50;;;;;;;15.65;8.48;;;;;;;;;;5032023;28;20318;-70
2023/05/21 07:31:15;;;;;;;16.63;8.87;;;;;;;;;;5031933;28;20044;-70
2023/05/21 07:33:40;;;;;;;14.98;8.10;;;;;;;;;;5030650;28;20391;-70
2023/05/21 07:36:06;;;;;;;12.60;7.90;;;;;;;;;;5033154;28;20014;-70
2023/05/21 07:38:31;;;;;;;17.60;8.60;;;;;;;;;;5028919;28;20280;-70
2023/05/21 07:40:56;;;;;;;16.13;8.53;;;;;;;;;;5028284;28;20095;-70
2023/05/21 07:43:21;;;;;;;20.48;8.77;;;;;;;;;;5030947;28;20275;-70
2023/05/21 07:45:47;;;;;;;13.48;8.15;;;;;;;;;;5030354;28;20021;-70
2023/05/21 07:48:13;;;;;;;14.23;8.27;;;;;;;;;;5031334;28;20124;-70
2023/05/21 07:50:38;;;;;;;15.57;8.85;;;;;;;;;;5031945;28;20103;-70
2023/05/21 07:53:03;;;;;;;13.13;9.07;;;;;;;;;;5027531;28;20033;-70
2023/05/21 07:55:28;;;;;;;14.32;8.63;;;;;;;;;;5031246;28;20113;-70
2023/05/21 07:57:53;;;;;;;13.77;8.80;;;;;;;;;;5027609;28;20174;-70
2023/05/21 08:00:21;;;;;;;11.33;8.07;;;;;;;;;;5030490;28;20510;-70
2023/05/21 08:02:46;;;;;;;15.43;9.18;;;;;;;;;;5029366;28;20275;-70
2023/05/21 08:05:12;;;;;;;14.80;8.27;;;;;;;;;;5029773;28;20133;-70
2023/05/21 08:07:37;;;;;;;17.87;8.27;;;;;;;;;;5025107;28;20276;-69
2023/05/21 08:10:03;;;;;;;14.77;8.00;;;;;;;;;;5022425;28;20279;-69
2023/05/21 08:12:28;;;;;;;15.77;8.25;;;;;;;;;;5030563;28;20025;-69
2023/05/21 08:14:53;;;;;;;13.20;7.60;;;;;;;;;;5030649;28;20044;-69
2023/05/21 08:17:18;;;;;;;17.00;8.90;;;;;;;;;;5028771;28;20534;-69
2023/05/21 08:19:44;;;;;;;12.80;8.63;;;;;;;;;;5023812;28;20025;-69
2023/05/21 08:22:09;;;;;;;15.20;9.10;;;;;;;;;;5030268;28;20021;-69
2023/05/21 08:24:34;;;;;;;16.07;8.80;;;;;;;;;;5029857;28;20709;-69
2023/05/21 08:26:59;;;;;;;16.65;9.60;;;;;;;;;;5029847;28;20807;-69
2023/05/21 08:29:24;;;;;;;20.48;8.93;;;;;;;;;;5029614;28;20457;-69
2023/05/21 08:31:50;;;;;;;13.77;8.97;;;;;;;;;;5031641;28;20013;-69
2023/05/21 08:34:15;;;;;;;15.03;9.10;;;;;;;;;;5028660;28;20279;-69
2023/05/21 08:36:45;;;;;;;15.85;8.90;;;;;;;;;;5029445;28;21058;-69
2023/05/21 08:39:10;;;;;;;14.60;8.18;;;;;;;;;;5027701;28;20455;-68
2023/05/21 08:41:35;;;;;;;16.38;8.30;;;;;;;;;;5029802;28;20067;-68
2023/05/21 08:44:01;;;;;;;18.85;10.25;;;;;;;;;;5032140;28;20129;-68
2023/05/21 08:46:32;;;;;;;18.45;9.70;;;;;;;;;;5027604;28;20383;-69
2023/05/21 08:48:59;;;;;;;17.98;8.60;;;;;;;;;;5024369;28;20017;-68
2023/05/21 08:51:25;;;;;;;15.23;9.65;;;;;;;;;;5032851;28;20014;-68
2023/05/21 08:53:50;;;;;;;19.23;9.05;;;;;;;;;;5032215;28;20260;-68
2023/05/21 08:56:17;;;;;;;14.10;8.07;;;;;;;;;;5023393;28;20544;-67
2023/05/21 08:58:45;;;;;;;13.27;8.60;;;;;;;;;;5027346;28;20272;-68
2023/05/21 09:01:11;;;;;;;17.13;8.95;;;;;;;;;;5027378;28;20014;-69
2023/05/21 09:03:38;;;;;;;20.33;10.07;;;;;;;;;;5030859;28;20020;-68
2023/05/21 09:06:04;;;;;;;13.48;8.50;;;;;;;;;;5025053;28;20378;-68
2023/05/21 09:08:34;;;;;;;12.88;7.78;;;;;;;;;;5021003;28;20021;-68
2023/05/21 09:11:00;;;;;;;28.42;10.38;;;;;;;;;;5031913;28;20029;-68
2023/05/21 09:13:26;;;;;;;18.23;9.18;;;;;;;;;;5030350;28;20040;-68
2023/05/21 09:15:51;;;;;;;14.48;8.43;;;;;;;;;;5029338;28;20391;-68
2023/05/21 09:18:16;;;;;;;13.43;8.88;;;;;;;;;;5032394;28;20033;-68
2023/05/21 09:20:42;;;;;;;15.05;8.18;;;;;;;;;;5030185;28;20394;-68
2023/05/21 09:23:16;;;;;;;12.73;8.80;;;;;;;;;;5024489;28;20391;-68
2023/05/21 09:25:43;;;;;;;15.63;8.23;;;;;;;;;;5030369;28;20093;-68
2023/05/21 09:28:12;;;;;;;14.32;8.48;;;;;;;;;;5030297;28;20026;-68
2023/05/21 09:30:42;;;;;;;14.82;8.38;;;;;;;;;;5030577;28;20105;-68
2023/05/21 09:33:07;;;;;;;15.60;8.02;;;;;;;;;;5030510;28;20057;-68
2023/05/21 09:35:34;;;;;;;13.67;8.60;;;;;;;;;;5030754;28;20052;-68
2023/05/21 09:38:00;;;;;;;16.88;9.18;;;;;;;;;;5028589;28;20075;-68
2023/05/21 09:40:25;;;;;;;18.08;9.40;;;;;;;;;;5028594;28;20720;-68
2023/05/21 09:42:54;;;;;;;15.00;9.40;;;;;;;;;;5030254;28;20109;-68
2023/05/21 09:45:20;;;;;;;13.48;8.80;;;;;;;;;;5030042;28;20022;-68
2023/05/21 09:47:46;;;;;;;13.80;8.93;;;;;;;;;;5030094;28;20024;-68
2023/05/21 09:50:12;;;;;;;17.08;8.35;;;;;;;;;;5029934;28;20052;-68
2023/05/21 09:52:37;;;;;;;13.13;8.02;;;;;;;;;;5025374;28;20053;-68
2023/05/21 09:55:03;;;;;;;11.57;8.35;;;;;;;;;;5029773;28;20025;-68
2023/05/21 09:57:29;;;;;;;17.98;8.85;;;;;;;;;;5028894;28;20271;-68
2023/05/21 09:59:54;;;;;;;15.33;8.63;;;;;;;;;;5029007;28;20391;-68
2023/05/21 10:02:20;;;;;;;11.98;8.60;;;;;;;;;;5029377;28;20045;-68
2023/05/21 10:04:47;;;;;;;13.50;9.73;;;;;;;;;;5029946;28;20025;-68
2023/05/21 10:07:13;;;;;;;16.88;9.52;;;;;;;;;;5029863;28;20454;-68
2023/05/21 10:09:39;;;;;;;15.27;9.18;;;;;;;;;;5030017;28;20486;-68
2023/05/21 10:12:05;;;;;;;16.08;8.75;;;;;;;;;;5030365;28;20025;-69
2023/05/21 10:14:31;;;;;;;17.77;9.77;;;;;;;;;;5029062;28;20021;-68
2023/05/21 10:16:57;;;;;;;16.17;8.40;;;;;;;;;;5029430;28;20017;-68
2023/05/21 10:19:23;;;;;;;16.70;9.52;;;;;;;;;;5029808;28;20040;-68
2023/05/21 10:21:48;;;;;;;13.68;9.40;;;;;;;;;;5030014;28;20032;-68
2023/05/21 10:24:14;;;;;;;15.80;8.70;;;;;;;;;;5029895;28;20060;-68
2023/05/21 10:26:40;;;;;;;14.32;9.15;;;;;;;;;;5030250;28;20265;-68
2023/05/21 10:29:06;;;;;;;18.50;10.70;;;;;;;;;;5029175;28;20017;-68
2023/05/21 10:31:32;;;;;;;15.88;10.07;;;;;;;;;;5030239;28;20092;-68
2023/05/21 10:33:57;;;;;;;19.38;9.82;;;;;;;;;;5029365;28;20109;-68
2023/05/21 10:36:23;;;;;;;15.80;9.45;;;;;;;;;;5033129;28;20060;-68
2023/05/21 10:38:48;;;;;;;14.88;8.55;;;;;;;;;;5033602;28;20064;-68
2023/05/21 10:41:18;;;;;;;15.47;9.43;;;;;;;;;;5033265;28;20026;-68
2023/05/21 10:44:19;;;;;;;13.70;9.13;;;;;;;;;;5032446;28;20379;-68
2023/05/21 10:46:47;;;;;;;14.25;10.00;;;;;;;;;;5030231;28;20446;-68
2023/05/21 10:49:24;;;;;;;15.40;9.27;;;;;;;;;;5027024;28;20099;-68
2023/05/21 10:51:59;;;;;;;11.90;8.57;;;;;;;;;;5033462;28;20029;-70
2023/05/21 10:54:24;;;;;;;14.77;9.52;;;;;;;;;;5025624;28;20021;-68
2023/05/21 10:57:12;;;;;;;19.05;9.50;;;;;;;;;;5028706;28;20018;-69
2023/05/21 10:59:46;;;;;;;14.65;9.50;;;;;;;;;;5032074;28;20017;-68
2023/05/21 11:02:18;;;;;;;17.67;8.70;;;;;;;;;;5032952;28;20144;-68
2023/05/21 11:04:43;;;;;;;14.23;8.93;;;;;;;;;;5033149;28;20090;-68
2023/05/21 11:07:09;;;;;;;16.30;9.88;;;;;;;;;;5032616;28;20025;-69
2023/05/21 11:09:34;;;;;;;17.50;8.82;;;;;;;;;;5033142;28;20029;-69
2023/05/21 11:12:01;;;;;;;18.97;9.70;;;;;;;;;;5032096;28;20474;-69
2023/05/21 11:14:31;;;;;;;15.18;9.68;;;;;;;;;;5032817;28;20613;-68
2023/05/21 11:16:57;;;;;;;15.52;9.70;;;;;;;;;;5032381;28;20075;-68
2023/05/21 11:19:31;;;;;;;15.55;9.13;;;;;;;;;;5024461;28;20022;-68
2023/05/21 11:21:56;;;;;;;13.45;8.80;;;;;;;;;;5032760;28;20033;-68
2023/05/21 11:24:22;;;;;;;12.17;8.30;;;;;;;;;;5032189;28;20091;-68
2023/05/21 11:26:47;;;;;;;12.32;8.85;;;;;;;;;;5032527;28;20478;-69
2023/05/21 11:29:13;;;;;;;15.23;8.97;;;;;;;;;;5028408;28;20079;-69
2023/05/21 11:31:43;;;;;;;12.43;8.40;;;;;;;;;;5021609;28;20049;-69
2023/05/21 11:34:15;;;;;;;13.05;8.77;;;;;;;;;;5026059;28;20013;-68
2023/05/21 11:36:43;;;;;;;15.38;8.95;;;;;;;;;;5030177;28;20025;-69
2023/05/21 11:39:12;;;;;;;13.90;9.45;;;;;;;;;;5029194;28;20032;-69
2023/05/21 11:41:55;;;;;;;12.20;8.88;;;;;;;;;;5030997;28;20025;-67
2023/05/21 11:44:36;;;;;;;14.60;9.52;;;;;;;;;;5030991;28;20021;-68
2023/05/21 11:47:01;;;;;;;16.23;8.88;;;;;;;;;;5027037;28;20455;-69
2023/05/21 11:49:26;;;;;;;14.43;9.27;;;;;;;;;;5029731;28;20028;-68
2023/05/21 11:51:52;;;;;;;15.50;9.93;;;;;;;;;;5034375;28;20706;-68
2023/05/21 11:54:18;;;;;;;15.07;9.23;;;;;;;;;;5030553;28;21044;-69
2023/05/21 11:56:43;;;;;;;16.10;8.40;;;;;;;;;;5031837;28;20021;-69
2023/05/21 11:59:15;;;;;;;14.20;8.48;;;;;;;;;;5033598;28;20025;-69
2023/05/21 12:01:43;;;;;;;17.80;8.75;;;;;;;;;;5023206;28;20531;-69
2023/05/21 12:04:10;;;;;;;16.02;8.68;;;;;;;;;;5027042;28;20018;-69
2023/05/21 12:06:36;;;;;;;13.82;8.82;;;;;;;;;;5030942;28;20037;-69
2023/05/21 12:09:03;;;;;;;14.32;9.63;;;;;;;;;;5031812;28;20453;-70
2023/05/21 12:11:28;;;;;;;13.45;9.15;;;;;;;;;;5031263;28;20009;-69
2023/05/21 12:13:53;;;;;;;14.70;10.00;;;;;;;;;;5019650;28;20012;-70
2023/05/21 12:16:19;;;;;;;14.43;9.87;;;;;;;;;;5029718;28;20017;-69
2023/05/21 12:18:44;;;;;;;14.15;9.13;;;;;;;;;;5031072;28;20260;-69
2023/05/21 12:21:10;;;;;;;17.90;9.98;;;;;;;;;;5033510;28;20474;-69
2023/05/21 12:23:35;;;;;;;19.40;9.60;;;;;;;;;;5031126;28;20087;-69
2023/05/21 12:26:02;;;;;;;16.67;9.45;;;;;;;;;;5031084;28;20013;-70
2023/05/21 12:28:27;;;;;;;13.82;10.35;;;;;;;;;;5023247;28;20018;-70
2023/05/21 12:30:52;;;;;;;15.55;10.05;;;;;;;;;;5021867;28;20052;-70
2023/05/21 12:33:17;;;;;;;17.50;9.10;;;;;;;;;;5030452;28;20100;-70
2023/05/21 12:35:48;;;;;;;14.00;9.23;;;;;;;;;;5028733;28;20040;-70
2023/05/21 12:38:14;;;;;;;15.75;9.77;;;;;;;;;;5026559;28;20108;-70
2023/05/21 12:40:40;;;;;;;15.98;9.52;;;;;;;;;;5031323;28;20221;-70
2023/05/21 12:43:05;;;;;;;15.98;8.52;;;;;;;;;;5030860;28;20059;-69
2023/05/21 12:45:31;;;;;;;17.13;9.10;;;;;;;;;;5030014;28;20036;-69
2023/05/21 12:47:56;;;;;;;14.38;9.38;;;;;;;;;;5030220;28;20479;-69
2023/05/21 12:50:21;;;;;;;13.80;10.13;;;;;;;;;;5030368;28;20493;-69
2023/05/21 12:52:46;;;;;;;15.77;9.17;;;;;;;;;;5028920;28;20053;-69
2023/05/21 12:55:12;;;;;;;14.43;9.63;;;;;;;;;;5030325;28;20292;-70
2023/05/21 12:57:37;;;;;;;16.33;9.85;;;;;;;;;;5033097;28;20397;-70
2023/05/21 13:00:05;;;;;;;16.53;10.07;;;;;;;;;;5027543;28;20025;-71
2023/05/21 13:02:31;;;;;;;14.30;9.43;;;;;;;;;;5027905;28;20013;-71
2023/05/21 13:05:03;;;;;;;21.70;9.85;;;;;;;;;;5026090;28;20070;-72
2023/05/21 13:07:29;;;;;;;13.32;9.02;;;;;;;;;;5028260;28;20021;-71
2023/05/21 13:09:55;;;;;;;15.65;9.85;;;;;;;;;;5026472;28;20116;-71
2023/05/21 13:12:21;;;;;;;16.70;9.38;;;;;;;;;;5023969;28;20100;-71
2023/05/21 13:14:46;;;;;;;17.27;9.52;;;;;;;;;;5029840;28;20072;-70
2023/05/21 13:17:11;;;;;;;14.82;9.20;;;;;;;;;;5030312;28;20046;-70
2023/05/21 13:19:36;;;;;;;17.13;9.60;;;;;;;;;;5030294;28;20021;-71
2023/05/21 13:22:02;;;;;;;17.03;9.27;;;;;;;;;;5029903;28;20522;-70
2023/05/21 13:24:27;;;;;;;16.27;9.75;;;;;;;;;;5028723;28;20025;-70
2023/05/21 13:26:52;;;;;;;15.80;9.87;;;;;;;;;;5025130;28;20379;-71
2023/05/21 13:29:17;;;;;;;18.83;10.77;;;;;;;;;;5026527;28;20267;-70
2023/05/21 13:31:43;;;;;;;14.37;9.13;;;;;;;;;;5011847;28;20289;-71
2023/05/21 13:34:09;;;;;;;16.10;9.13;;;;;;;;;;5010138;28;20304;-70
2023/05/21 13:36:34;;;;;;;15.77;10.25;;;;;;;;;;5012763;28;20244;-71
2023/05/21 13:39:00;;;;;;;15.38;9.55;;;;;;;;;;5009913;28;20072;-71
2023/05/21 13:41:25;;;;;;;21.00;10.27;;;;;;;;;;5004228;28;20036;-70
2023/05/21 13:43:50;;;;;;;12.82;9.07;;;;;;;;;;5012053;28;20124;-70
2023/05/21 13:46:15;;;;;;;20.35;9.32;;;;;;;;;;5031488;28;20025;-70
2023/05/21 13:48:42;;;;;;;13.32;8.88;;;;;;;;;;5029797;28;20083;-71
2023/05/21 13:51:07;;;;;;;15.02;8.95;;;;;;;;;;5019080;28;20387;-71
2023/05/21 13:53:32;;;;;;;17.23;10.43;;;;;;;;;;5014569;28;20036;-71
2023/05/21 13:55:57;;;;;;;15.80;10.00;;;;;;;;;;5004506;28;21228;-71
2023/05/21 13:58:22;;;;;;;13.67;8.20;;;;;;;;;;5006743;28;20291;-71
2023/05/21 14:00:48;;;;;;;11.37;8.33;;;;;;;;;;5002263;28;20280;-70
2023/05/21 14:03:13;;;;;;;14.60;9.30;;;;;;;;;;5003385;28;20026;-71
2023/05/21 14:05:38;;;;;;;12.50;8.93;;;;;;;;;;5001675;28;20025;-70
2023/05/21 14:08:03;;;;;;;13.47;9.97;;;;;;;;;;5015151;28;20026;-71
2023/05/21 14:10:28;;;;;;;16.65;9.35;;;;;;;;;;5015367;28;20310;-70
2023/05/21 14:12:54;;;;;;;16.50;9.23;;;;;;;;;;5021081;28;20294;-71
2023/05/21 14:15:19;;;;;;;17.17;9.43;;;;;;;;;;5034196;28;20029;-70
2023/05/21 14:17:45;;;;;;;16.15;9.32;;;;;;;;;;5028939;28;20060;-70
2023/05/21 14:20:10;;;;;;;20.87;9.67;;;;;;;;;;5028492;28;20037;-70